Time,TemperatureF,DewpointF,PressureIn,WindDirection,WindDirectionDegrees,WindSpeedMPH,WindSpeedGustMPH,Humidity,HourlyPrecipIn,Conditions,Clouds,dailyrainin,SoftwareType,DateUTC
2013-02-15 00:00:00,25.9,17.1,30.46,West,266,0.0,0.0,69,0.00,,CLR,0.00,VWS V14.01,2013-02-15 08:00:00,
2013-02-15 00:05:00,25.5,16.8,30.46,West,266,0.0,0.0,69,0.00,,FEW035,0.00,VWS V14.01,2013-02-15 08:05:00,
2013-02-15 00:10:00,25.5,16.8,30.46,West,266,0.0,0.0,69,0.00,,FEW035,0.00,VWS V14.01,2013-02-15 08:10:00,
2013-02-15 00:15:00,25.7,17.3,30.46,West,265,0.0,0.0,70,0.00,,FEW035,0.00,VWS V14.01,2013-02-15 08:15:00,
2013-02-15 00:20:00,25.5,17.1,30.46,West,266,0.0,0.0,70,0.00,,FEW035,0.00,VWS V14.01,2013-02-15 08:20:00,
2013-02-15 00:25:00,25.5,17.1,30.46,West,266,0.0,0.0,70,0.00,,FEW035,0.00,VWS V14.01,2013-02-15 08:25:00,
2013-02-15 00:30:00,25.2,16.4,30.46,West,266,0.0,0.0,69,0.00,,FEW035,0.00,VWS V14.01,2013-02-15 08:30:00,
2013-02-15 00:35:00,25.0,16.3,30.46,West,266,0.0,0.0,69,0.00,,FEW035,0.00,VWS V14.01,2013-02-15 08:35:00,
2013-02-15 00:40:00,24.6,16.2,30.46,West,266,0.0,0.0,70,0.00,,FEW035,0.00,VWS V14.01,2013-02-15 08:40:00,
2013-02-15 00:45:00,24.4,16.1,30.46,West,266,0.0,0.0,70,0.00,,FEW035,0.00,VWS V14.01,2013-02-15 08:45:00,
2013-02-15 00:50:00,24.3,15.9,30.46,West,266,0.0,0.0,70,0.00,,FEW035,0.00,VWS V14.01,2013-02-15 08:50:00,
2013-02-15 00:55:00,24.3,15.9,30.46,West,265,0.0,0.0,70,0.00,,FEW035,0.00,VWS V14.01,2013-02-15 08:55:00,
2013-02-15 01:00:00,24.4,16.4,30.46,West,266,0.0,0.0,71,0.00,,FEW035,0.00,VWS V14.01,2013-02-15 09:00:00,
2013-02-15 01:05:00,24.4,16.4,30.46,West,266,0.0,0.0,71,0.00,,CLR,0.00,VWS V14.01,2013-02-15 09:05:00,
2013-02-15 01:10:00,24.4,16.4,30.46,West,266,0.0,0.0,71,0.00,,CLR,0.00,VWS V14.01,2013-02-15 09:10:00,
2013-02-15 01:15:00,24.4,16.4,30.46,West,266,0.0,0.0,71,0.00,,CLR,0.00,VWS V14.01,2013-02-15 09:15:00,
2013-02-15 01:20:00,24.4,16.4,30.46,West,266,0.0,0.0,71,0.00,,CLR,0.00,VWS V14.01,2013-02-15 09:20:00,
2013-02-15 01:25:00,24.3,16.2,30.46,West,266,0.0,0.0,71,0.00,,CLR,0.00,VWS V14.01,2013-02-15 09:25:00,
2013-02-15 01:30:00,23.9,15.9,30.46,West,265,0.0,0.0,71,0.00,,CLR,0.00,VWS V14.01,2013-02-15 09:30:00,
2013-02-15 01:35:00,23.9,15.9,30.46,West,266,0.0,0.0,71,0.00,,CLR,0.00,VWS V14.01,2013-02-15 09:35:00,
2013-02-15 01:40:00,24.4,17.0,30.46,West,266,0.0,0.0,73,0.00,,CLR,0.00,VWS V14.01,2013-02-15 09:40:00,
2013-02-15 01:45:00,25.2,17.7,30.46,West,266,0.0,2.2,73,0.00,,CLR,0.00,VWS V14.01,2013-02-15 09:45:00,
2013-02-15 01:50:00,25.5,18.4,30.46,NW,314,2.7,2.7,74,0.00,,CLR,0.00,VWS V14.01,2013-02-15 09:50:00,
2013-02-15 01:55:00,25.7,18.6,30.46,NW,314,2.7,2.7,74,0.00,,CLR,0.00,VWS V14.01,2013-02-15 09:55:00,
2013-02-15 02:00:00,25.7,18.6,30.46,NW,314,0.0,0.0,74,0.00,,CLR,0.00,VWS V14.01,2013-02-15 10:00:00,
2013-02-15 02:05:00,25.7,18.3,30.46,NW,314,0.0,0.0,73,0.00,,CLR,0.00,VWS V14.01,2013-02-15 10:05:00,
2013-02-15 02:10:00,25.5,18.1,30.46,NW,314,0.0,0.0,73,0.00,,CLR,0.00,VWS V14.01,2013-02-15 10:10:00,
2013-02-15 02:15:00,25.3,17.9,30.46,NW,314,0.0,0.0,73,0.00,,CLR,0.00,VWS V14.01,2013-02-15 10:15:00,
2013-02-15 02:20:00,25.0,17.6,30.46,NW,314,0.0,0.0,73,0.00,,CLR,0.00,VWS V14.01,2013-02-15 10:20:00,
2013-02-15 02:25:00,24.6,17.2,30.46,NW,314,0.0,0.0,73,0.00,,CLR,0.00,VWS V14.01,2013-02-15 10:25:00,
2013-02-15 02:30:00,24.6,17.2,30.46,NW,314,0.0,0.0,73,0.00,,CLR,0.00,VWS V14.01,2013-02-15 10:30:00,
2013-02-15 02:35:00,24.4,17.0,30.46,NW,314,0.0,0.0,73,0.00,,CLR,0.00,VWS V14.01,2013-02-15 10:35:00,
2013-02-15 02:40:00,24.4,17.7,30.46,NW,314,0.0,0.0,75,0.00,,CLR,0.00,VWS V14.01,2013-02-15 10:40:00,
2013-02-15 02:45:00,24.4,17.7,30.46,NW,314,0.0,0.0,75,0.00,,CLR,0.00,VWS V14.01,2013-02-15 10:45:00,
2013-02-15 02:50:00,24.6,17.8,30.46,NW,314,0.0,0.0,75,0.00,,CLR,0.00,VWS V14.01,2013-02-15 10:50:00,
2013-02-15 02:55:00,25.0,18.5,30.46,NW,314,0.0,0.0,76,0.00,,CLR,0.00,VWS V14.01,2013-02-15 10:55:00,
2013-02-15 03:00:00,24.8,18.0,30.46,NW,314,0.0,0.0,75,0.00,,CLR,0.00,VWS V14.01,2013-02-15 11:00:00,
2013-02-15 03:05:00,24.4,17.7,30.46,NW,314,0.0,0.0,75,0.00,,CLR,0.00,VWS V14.01,2013-02-15 11:05:00,
2013-02-15 03:10:00,24.1,17.3,30.46,NW,314,0.0,0.0,75,0.00,,CLR,0.00,VWS V14.01,2013-02-15 11:10:00,
2013-02-15 03:15:00,24.1,17.3,30.46,NW,314,0.0,0.0,75,0.00,,CLR,0.00,VWS V14.01,2013-02-15 11:15:00,
2013-02-15 03:20:00,23.7,17.0,30.46,NW,314,0.0,0.0,75,0.00,,CLR,0.00,VWS V14.01,2013-02-15 11:20:00,
2013-02-15 03:25:00,23.5,16.5,30.46,NW,314,0.0,0.0,74,0.00,,CLR,0.00,VWS V14.01,2013-02-15 11:25:00,
2013-02-15 03:30:00,23.5,16.8,30.46,NW,314,0.0,0.0,75,0.00,,CLR,0.00,VWS V14.01,2013-02-15 11:30:00,
2013-02-15 03:35:00,23.5,16.8,30.46,NW,314,0.0,0.0,75,0.00,,CLR,0.00,VWS V14.01,2013-02-15 11:35:00,
2013-02-15 03:40:00,23.5,16.8,30.46,NW,314,0.0,0.0,75,0.00,,CLR,0.00,VWS V14.01,2013-02-15 11:40:00,
2013-02-15 03:45:00,23.5,16.8,30.46,NW,314,0.0,0.0,75,0.00,,CLR,0.00,VWS V14.01,2013-02-15 11:45:00,
2013-02-15 03:50:00,23.5,16.8,30.46,NW,314,0.0,0.0,75,0.00,,CLR,0.00,VWS V14.01,2013-02-15 11:50:00,
2013-02-15 03:55:00,23.2,16.1,30.46,NW,314,0.0,0.0,74,0.00,,CLR,0.00,VWS V14.01,2013-02-15 11:55:00,
2013-02-15 04:00:00,22.8,15.8,30.46,NW,314,0.0,0.0,74,0.00,,CLR,0.00,VWS V14.01,2013-02-15 12:00:00,
2013-02-15 04:05:00,23.0,16.3,30.46,NW,314,0.0,0.0,75,0.00,,FEW025,0.00,VWS V14.01,2013-02-15 12:05:00,
2013-02-15 04:10:00,23.4,16.6,30.46,NW,314,0.0,0.0,75,0.00,,FEW025,0.00,VWS V14.01,2013-02-15 12:10:00,
2013-02-15 04:14:00,23.7,17.3,30.46,NW,314,2.7,3.1,76,0.00,,FEW025,0.00,VWS V14.01,2013-02-15 12:14:00,
2013-02-15 04:19:00,24.3,17.8,30.46,NW,314,0.0,0.0,76,0.00,,FEW025,0.00,VWS V14.01,2013-02-15 12:19:00,
2013-02-15 04:25:00,24.4,18.0,30.46,NW,314,0.0,0.0,76,0.00,,FEW025,0.00,VWS V14.01,2013-02-15 12:25:00,
2013-02-15 04:30:00,24.1,17.6,30.46,NW,314,0.0,0.0,76,0.00,,FEW025,0.00,VWS V14.01,2013-02-15 12:30:00,
2013-02-15 04:35:00,23.7,17.0,30.46,NW,314,0.0,0.0,75,0.00,,FEW025,0.00,VWS V14.01,2013-02-15 12:35:00,
2013-02-15 04:39:00,23.5,16.8,30.46,NW,314,0.0,0.0,75,0.00,,FEW025,0.00,VWS V14.01,2013-02-15 12:39:00,
2013-02-15 04:44:00,23.4,16.6,30.46,NW,314,0.0,0.0,75,0.00,,FEW025,0.00,VWS V14.01,2013-02-15 12:44:00,
2013-02-15 04:49:00,23.4,16.6,30.46,NW,314,0.0,0.0,75,0.00,,FEW025,0.00,VWS V14.01,2013-02-15 12:49:00,
2013-02-15 04:54:00,23.0,16.3,30.46,NW,314,0.0,0.0,75,0.00,,FEW025,0.00,VWS V14.01,2013-02-15 12:54:00,
2013-02-15 04:59:00,23.2,16.5,30.46,NW,314,0.0,0.0,75,0.00,,FEW025,0.00,VWS V14.01,2013-02-15 12:59:00,
2013-02-15 05:04:00,23.4,16.9,30.46,NW,314,0.0,0.0,76,0.00,,FEW025,0.00,VWS V14.01,2013-02-15 13:04:00,
2013-02-15 05:09:00,23.2,16.5,30.46,NW,314,0.0,0.0,75,0.00,,FEW025,0.00,VWS V14.01,2013-02-15 13:09:00,
2013-02-15 05:14:00,22.8,16.1,30.46,NW,314,0.0,0.0,75,0.00,,FEW025,0.00,VWS V14.01,2013-02-15 13:14:00,
2013-02-15 05:19:00,22.8,16.1,30.46,NW,314,0.0,0.0,75,0.00,,FEW025,0.00,VWS V14.01,2013-02-15 13:19:00,
2013-02-15 05:24:00,23.0,16.6,30.46,NW,314,0.0,0.0,76,0.00,,FEW025,0.00,VWS V14.01,2013-02-15 13:24:00,
2013-02-15 05:29:00,23.0,16.6,30.46,NW,314,0.0,0.0,76,0.00,,FEW025,0.00,VWS V14.01,2013-02-15 13:29:00,
2013-02-15 05:34:00,23.2,16.8,30.46,NW,314,0.0,0.0,76,0.00,,FEW025,0.00,VWS V14.01,2013-02-15 13:34:00,
2013-02-15 05:39:00,23.2,16.8,30.46,NW,314,0.0,0.0,76,0.00,,FEW025,0.00,VWS V14.01,2013-02-15 13:39:00,
2013-02-15 05:44:00,23.2,16.8,30.46,NW,314,0.0,0.0,76,0.00,,FEW025,0.00,VWS V14.01,2013-02-15 13:44:00,
2013-02-15 05:49:00,23.2,16.8,30.46,NW,314,0.0,0.0,76,0.00,,FEW025,0.00,VWS V14.01,2013-02-15 13:49:00,
2013-02-15 05:54:00,23.2,16.8,30.46,NW,314,0.0,0.0,76,0.00,,FEW025,0.00,VWS V14.01,2013-02-15 13:54:00,
2013-02-15 05:59:00,23.4,16.9,30.46,NW,314,0.0,0.0,76,0.00,,FEW025,0.00,VWS V14.01,2013-02-15 13:59:00,
2013-02-15 06:04:00,23.7,17.6,30.46,NW,314,0.0,0.0,77,0.00,,FEW025,0.00,VWS V14.01,2013-02-15 14:04:00,
2013-02-15 06:09:00,24.1,17.9,30.46,NW,314,0.0,0.0,77,0.00,,FEW025,0.00,VWS V14.01,2013-02-15 14:09:00,
2013-02-15 06:14:00,23.9,17.8,30.46,NW,314,0.0,0.0,77,0.00,,FEW025,0.00,VWS V14.01,2013-02-15 14:14:00,
2013-02-15 06:19:00,23.5,17.1,30.46,NW,314,0.0,0.0,76,0.00,,FEW025,0.00,VWS V14.01,2013-02-15 14:19:00,
2013-02-15 06:24:00,23.4,16.9,30.46,NW,314,0.0,0.0,76,0.00,,FEW025,0.00,VWS V14.01,2013-02-15 14:24:00,
2013-02-15 06:29:00,22.8,16.4,30.46,NW,314,0.0,0.0,76,0.00,,FEW025,0.00,VWS V14.01,2013-02-15 14:29:00,
2013-02-15 06:34:00,22.8,16.4,30.46,NW,314,0.0,0.0,76,0.00,,FEW025,0.00,VWS V14.01,2013-02-15 14:34:00,
2013-02-15 06:39:00,22.8,16.4,30.46,NW,314,0.0,0.0,76,0.00,,FEW025,0.00,VWS V14.01,2013-02-15 14:39:00,
2013-02-15 06:44:00,22.8,16.4,30.46,NW,314,0.0,0.0,76,0.00,,FEW025,0.00,VWS V14.01,2013-02-15 14:44:00,
2013-02-15 06:49:00,23.2,17.0,30.46,NW,314,0.0,0.0,77,0.00,,FEW025,0.00,VWS V14.01,2013-02-15 14:49:00,
2013-02-15 06:54:00,23.4,17.2,30.46,NW,314,0.0,0.0,77,0.00,,FEW025,0.00,VWS V14.01,2013-02-15 14:54:00,
2013-02-15 06:59:00,23.2,17.0,30.46,NW,314,0.0,0.0,77,0.00,,FEW025,0.00,VWS V14.01,2013-02-15 14:59:00,
2013-02-15 07:04:00,23.7,17.9,30.46,NW,314,2.7,2.7,78,0.00,,SCT,0.00,VWS V14.01,2013-02-15 15:04:00,
2013-02-15 07:09:00,24.8,19.2,30.46,NW,315,0.0,2.2,79,0.00,,SCT,0.00,VWS V14.01,2013-02-15 15:09:00,
2013-02-15 07:14:00,25.3,19.5,30.46,NW,316,0.0,0.0,78,0.00,,SCT,0.00,VWS V14.01,2013-02-15 15:14:00,
2013-02-15 07:19:00,25.5,19.6,30.46,NW,316,0.0,0.0,78,0.00,,SCT,0.00,VWS V14.01,2013-02-15 15:19:00,
2013-02-15 07:24:00,26.1,20.5,30.46,NW,316,0.0,0.0,79,0.00,,SCT,0.00,VWS V14.01,2013-02-15 15:24:00,
2013-02-15 07:29:00,26.2,20.6,30.46,NW,316,0.0,0.0,79,0.00,,SCT,0.00,VWS V14.01,2013-02-15 15:29:00,
2013-02-15 07:34:00,26.2,20.6,30.46,NW,316,0.0,0.0,79,0.00,,SCT,0.00,VWS V14.01,2013-02-15 15:34:00,
2013-02-15 07:39:00,26.4,20.8,30.46,NW,316,0.0,0.0,79,0.00,,SCT,0.00,VWS V14.01,2013-02-15 15:39:00,
2013-02-15 07:44:00,26.6,20.7,30.46,NW,316,0.0,0.0,78,0.00,,SCT,0.00,VWS V14.01,2013-02-15 15:44:00,
2013-02-15 07:49:00,26.8,20.9,30.46,NW,316,0.0,0.0,78,0.00,,SCT,0.00,VWS V14.01,2013-02-15 15:49:00,
2013-02-15 07:54:00,27.1,21.2,30.46,NW,316,0.0,2.2,78,0.00,,SCT,0.00,VWS V14.01,2013-02-15 15:54:00,
2013-02-15 07:59:00,27.5,21.5,30.46,NW,316,0.0,0.0,78,0.00,,SCT,0.00,VWS V14.01,2013-02-15 15:59:00,
2013-02-15 08:04:00,27.9,21.9,30.46,NW,316,0.0,0.0,78,0.00,,BKN200,0.00,VWS V14.01,2013-02-15 16:04:00,
2013-02-15 08:09:00,28.4,22.4,30.46,NW,316,0.0,0.0,78,0.00,,BKN200,0.00,VWS V14.01,2013-02-15 16:09:00,
2013-02-15 08:14:00,28.8,22.8,30.46,NW,316,0.0,0.0,78,0.00,,BKN200,0.00,VWS V14.01,2013-02-15 16:14:00,
2013-02-15 08:19:00,29.1,23.1,30.46,NW,316,0.0,0.0,78,0.00,,BKN200,0.00,VWS V14.01,2013-02-15 16:19:00,
2013-02-15 08:24:00,29.7,23.6,30.46,NW,316,2.2,2.2,78,0.00,,BKN200,0.00,VWS V14.01,2013-02-15 16:24:00,
2013-02-15 08:29:00,30.2,24.5,30.46,NW,316,0.0,0.0,79,0.00,,BKN200,0.00,VWS V14.01,2013-02-15 16:29:00,
2013-02-15 08:34:00,30.2,24.2,30.46,NW,316,0.0,0.0,78,0.00,,BKN200,0.00,VWS V14.01,2013-02-15 16:34:00,
2013-02-15 08:39:00,30.4,24.4,30.46,NW,316,2.2,2.2,78,0.00,,BKN200,0.00,VWS V14.01,2013-02-15 16:39:00,
2013-02-15 08:44:00,30.6,24.5,30.46,NW,316,0.0,2.7,78,0.00,,BKN200,0.00,VWS V14.01,2013-02-15 16:44:00,
2013-02-15 08:49:00,30.9,24.9,30.46,NW,316,0.0,0.0,78,0.00,,BKN200,0.00,VWS V14.01,2013-02-15 16:49:00,
2013-02-15 08:54:00,31.3,25.2,30.46,NW,316,0.0,0.0,78,0.00,,BKN200,0.00,VWS V14.01,2013-02-15 16:54:00,
2013-02-15 08:59:00,32.0,25.9,30.46,NW,316,0.0,0.0,78,0.00,,BKN200,0.00,VWS V14.01,2013-02-15 16:59:00,
2013-02-15 09:04:00,32.4,26.3,30.46,NW,316,0.0,0.0,78,0.00,,BKN200,0.00,VWS V14.01,2013-02-15 17:04:00,
2013-02-15 09:09:00,32.5,26.5,30.46,NW,316,0.0,0.0,78,0.00,,BKN200,0.00,VWS V14.01,2013-02-15 17:09:00,
2013-02-15 09:14:00,33.1,27.0,30.46,NW,316,0.0,0.0,78,0.00,,BKN200,0.00,VWS V14.01,2013-02-15 17:14:00,
2013-02-15 09:19:00,33.1,26.7,30.46,NW,316,0.0,0.0,77,0.00,,BKN200,0.00,VWS V14.01,2013-02-15 17:19:00,
2013-02-15 09:24:00,33.3,26.8,30.46,NW,316,2.7,2.7,77,0.00,,BKN200,0.00,VWS V14.01,2013-02-15 17:24:00,
2013-02-15 09:29:00,33.8,27.0,30.46,NW,316,0.0,3.1,76,0.00,,BKN200,0.00,VWS V14.01,2013-02-15 17:29:00,
2013-02-15 09:34:00,34.3,27.6,30.46,ENE,78,3.6,4.0,76,0.00,,BKN200,0.00,VWS V14.01,2013-02-15 17:34:00,
2013-02-15 09:39:00,34.5,27.4,30.43,ENE,69,3.6,3.6,75,0.00,,BKN200,0.00,VWS V14.01,2013-02-15 17:39:00,
2013-02-15 09:44:00,34.7,26.6,30.43,ENE,72,3.6,3.6,72,0.00,,BKN200,0.00,VWS V14.01,2013-02-15 17:44:00,
2013-02-15 09:49:00,34.9,26.5,30.43,ENE,77,2.2,2.2,71,0.00,,BKN200,0.00,VWS V14.01,2013-02-15 17:49:00,
2013-02-15 09:54:00,35.1,26.3,30.43,ENE,77,3.1,3.1,70,0.00,,BKN200,0.00,VWS V14.01,2013-02-15 17:54:00,
2013-02-15 09:59:00,35.2,26.1,30.43,ENE,77,0.0,2.2,69,0.00,,BKN200,0.00,VWS V14.01,2013-02-15 17:59:00,
2013-02-15 10:04:00,35.6,26.1,30.43,ENE,74,3.1,3.1,68,0.00,,BKN200,0.00,VWS V14.01,2013-02-15 18:04:00,
2013-02-15 10:09:00,35.8,25.2,30.46,ENE,67,2.7,2.7,65,0.00,,BKN200,0.00,VWS V14.01,2013-02-15 18:09:00,
2013-02-15 10:14:00,35.8,23.7,30.46,NNE,30,0.0,0.0,61,0.00,,BKN200,0.00,VWS V14.01,2013-02-15 18:14:00,
2013-02-15 10:19:00,36.1,24.0,30.46,NNE,30,0.0,0.0,61,0.00,,BKN200,0.00,VWS V14.01,2013-02-15 18:19:00,
2013-02-15 10:24:00,36.5,24.3,30.46,NNE,30,0.0,0.0,61,0.00,,BKN200,0.00,VWS V14.01,2013-02-15 18:24:00,
2013-02-15 10:29:00,37.4,25.2,30.46,NNE,30,0.0,2.2,61,0.00,,BKN200,0.00,VWS V14.01,2013-02-15 18:29:00,
2013-02-15 10:34:00,37.9,25.3,30.46,NNE,30,0.0,0.0,60,0.00,,BKN200,0.00,VWS V14.01,2013-02-15 18:34:00,
2013-02-15 10:39:00,38.3,24.8,30.43,NNE,31,2.7,2.7,58,0.00,,BKN200,0.00,VWS V14.01,2013-02-15 18:39:00,
2013-02-15 10:44:00,38.7,24.3,30.43,NNE,31,0.0,0.0,56,0.00,,BKN200,0.00,VWS V14.01,2013-02-15 18:44:00,
2013-02-15 10:49:00,39.0,24.2,30.43,NNE,31,0.0,2.2,55,0.00,,BKN200,0.00,VWS V14.01,2013-02-15 18:49:00,
2013-02-15 10:54:00,39.2,23.1,30.43,NNE,31,0.0,0.0,52,0.00,,BKN200,0.00,VWS V14.01,2013-02-15 18:54:00,
2013-02-15 10:59:00,39.4,22.3,30.43,NNE,31,0.0,0.0,50,0.00,,BKN200,0.00,VWS V14.01,2013-02-15 18:59:00,
2013-02-15 11:04:00,39.6,22.5,30.43,NNE,31,0.0,0.0,50,0.00,,BKN200,0.00,VWS V14.01,2013-02-15 19:04:00,
2013-02-15 11:09:00,39.7,22.2,30.43,NNE,31,0.0,0.0,49,0.00,,BKN200,0.00,VWS V14.01,2013-02-15 19:09:00,
2013-02-15 11:14:00,40.3,22.7,30.43,NNE,31,0.0,0.0,49,0.00,,BKN200,0.00,VWS V14.01,2013-02-15 19:14:00,
2013-02-15 11:19:00,40.6,22.5,30.43,NNE,31,0.0,0.0,48,0.00,,BKN200,0.00,VWS V14.01,2013-02-15 19:19:00,
2013-02-15 11:24:00,41.2,23.0,30.43,NNE,31,2.2,3.1,48,0.00,,BKN200,0.00,VWS V14.01,2013-02-15 19:24:00,
2013-02-15 11:29:00,41.7,22.0,30.43,NNE,31,2.2,3.1,45,0.00,,BKN200,0.00,VWS V14.01,2013-02-15 19:29:00,
2013-02-15 11:34:00,41.7,21.4,30.43,NNE,31,2.7,2.7,44,0.00,,BKN200,0.00,VWS V14.01,2013-02-15 19:34:00,
2013-02-15 11:39:00,41.7,21.4,30.43,NNE,31,2.7,2.7,44,0.00,,BKN200,0.00,VWS V14.01,2013-02-15 19:39:00,
2013-02-15 11:44:00,42.1,21.2,30.43,NNE,31,2.2,3.1,43,0.00,,BKN200,0.00,VWS V14.01,2013-02-15 19:44:00,
2013-02-15 11:49:00,42.4,21.5,30.43,NNE,31,2.7,3.6,43,0.00,,BKN200,0.00,VWS V14.01,2013-02-15 19:49:00,
2013-02-15 11:54:00,43.0,21.5,30.43,NNE,31,0.0,0.0,42,0.00,,BKN200,0.00,VWS V14.01,2013-02-15 19:54:00,
2013-02-15 11:59:00,43.3,21.8,30.43,NNE,31,3.1,3.1,42,0.00,,BKN200,0.00,VWS V14.01,2013-02-15 19:59:00,
2013-02-15 12:04:00,43.7,21.6,30.43,NNE,33,2.2,2.7,41,0.00,,BKN200,0.00,VWS V14.01,2013-02-15 20:04:00,
2013-02-15 12:09:00,44.1,21.9,30.40,NNE,33,3.1,3.1,41,0.00,,BKN200,0.00,VWS V14.01,2013-02-15 20:09:00,
2013-02-15 12:14:00,44.2,22.0,30.40,NNE,33,2.7,2.7,41,0.00,,BKN200,0.00,VWS V14.01,2013-02-15 20:14:00,
2013-02-15 12:19:00,44.4,21.6,30.40,NNE,33,0.0,0.0,40,0.00,,BKN200,0.00,VWS V14.01,2013-02-15 20:19:00,
2013-02-15 12:24:00,44.8,22.0,30.40,NNE,33,2.7,2.7,40,0.00,,BKN200,0.00,VWS V14.01,2013-02-15 20:24:00,
2013-02-15 12:29:00,44.8,21.4,30.40,NNE,33,2.7,3.1,39,0.00,,BKN200,0.00,VWS V14.01,2013-02-15 20:29:00,
2013-02-15 12:34:00,45.1,21.7,30.40,NNE,33,0.0,2.7,39,0.00,,BKN200,0.00,VWS V14.01,2013-02-15 20:34:00,
2013-02-15 12:39:00,45.3,22.4,30.40,NNE,33,2.7,3.1,40,0.00,,BKN200,0.00,VWS V14.01,2013-02-15 20:39:00,
2013-02-15 12:44:00,45.5,22.6,30.40,NNE,33,3.1,3.1,40,0.00,,BKN200,0.00,VWS V14.01,2013-02-15 20:44:00,
2013-02-15 12:49:00,45.9,22.9,30.40,SSE,149,2.7,2.7,40,0.00,,BKN200,0.00,VWS V14.01,2013-02-15 20:49:00,
2013-02-15 12:54:00,46.2,23.2,30.40,SSW,193,4.9,4.9,40,0.00,,BKN200,0.00,VWS V14.01,2013-02-15 20:54:00,
2013-02-15 12:59:00,46.2,22.6,30.40,West,270,0.0,0.0,39,0.00,,BKN200,0.00,VWS V14.01,2013-02-15 20:59:00,
2013-02-15 13:04:00,46.0,22.5,30.40,SW,228,5.8,5.8,39,0.00,,BKN200,0.00,VWS V14.01,2013-02-15 21:04:00,
2013-02-15 13:09:00,46.4,22.8,30.37,West,259,0.0,3.1,39,0.00,,BKN200,0.00,VWS V14.01,2013-02-15 21:09:00,
2013-02-15 13:14:00,46.4,22.2,30.37,SW,220,3.6,4.9,38,0.00,,BKN200,0.00,VWS V14.01,2013-02-15 21:14:00,
2013-02-15 13:19:00,46.6,22.4,30.37,SW,226,0.0,0.0,38,0.00,,BKN200,0.00,VWS V14.01,2013-02-15 21:19:00,
2013-02-15 13:24:00,46.9,22.7,30.37,SSW,206,2.2,3.1,38,0.00,,BKN200,0.00,VWS V14.01,2013-02-15 21:24:00,
2013-02-15 13:29:00,47.1,22.8,30.37,West,262,0.0,2.7,38,0.00,,BKN200,0.00,VWS V14.01,2013-02-15 21:29:00,
2013-02-15 13:34:00,47.1,22.8,30.37,WSW,244,5.8,7.6,38,0.00,,BKN200,0.00,VWS V14.01,2013-02-15 21:34:00,
2013-02-15 13:39:00,47.3,23.0,30.37,WSW,258,5.4,5.4,38,0.00,,BKN200,0.00,VWS V14.01,2013-02-15 21:39:00,
2013-02-15 13:44:00,47.5,23.2,30.37,WSW,243,3.6,8.1,38,0.00,,BKN200,0.00,VWS V14.01,2013-02-15 21:44:00,
2013-02-15 13:49:00,47.5,23.2,30.37,West,259,3.1,6.3,38,0.00,,BKN200,0.00,VWS V14.01,2013-02-15 21:49:00,
2013-02-15 13:54:00,47.7,23.3,30.34,West,268,4.0,4.9,38,0.00,,BKN200,0.00,VWS V14.01,2013-02-15 21:54:00,
2013-02-15 13:59:00,47.7,23.3,30.34,WSW,241,6.3,6.3,38,0.00,,BKN200,0.00,VWS V14.01,2013-02-15 21:59:00,
2013-02-15 14:04:00,47.8,22.9,30.34,West,266,0.0,2.7,37,0.00,,BKN200,0.00,VWS V14.01,2013-02-15 22:04:00,
2013-02-15 14:09:00,48.0,23.0,30.34,West,278,2.7,2.7,37,0.00,,BKN200,0.00,VWS V14.01,2013-02-15 22:09:00,
2013-02-15 14:14:00,48.0,23.0,30.34,WSW,249,4.0,7.6,37,0.00,,BKN200,0.00,VWS V14.01,2013-02-15 22:14:00,
2013-02-15 14:19:00,48.0,23.0,30.34,WSW,257,4.9,5.8,37,0.00,,BKN200,0.00,VWS V14.01,2013-02-15 22:19:00,
2013-02-15 14:24:00,48.2,23.2,30.34,West,261,6.3,8.1,37,0.00,,BKN200,0.00,VWS V14.01,2013-02-15 22:24:00,
2013-02-15 14:29:00,48.2,23.2,30.34,South,178,0.0,0.0,37,0.00,,BKN200,0.00,VWS V14.01,2013-02-15 22:29:00,
2013-02-15 14:34:00,48.0,23.0,30.34,SW,236,2.7,6.3,37,0.00,,BKN200,0.00,VWS V14.01,2013-02-15 22:34:00,
2013-02-15 14:39:00,48.2,23.2,30.34,WSW,241,6.3,7.6,37,0.00,,BKN200,0.00,VWS V14.01,2013-02-15 22:39:00,
2013-02-15 14:44:00,48.2,23.2,30.34,West,266,0.0,0.0,37,0.00,,BKN200,0.00,VWS V14.01,2013-02-15 22:44:00,
2013-02-15 14:49:00,48.4,23.3,30.34,NW,316,2.2,2.2,37,0.00,,BKN200,0.00,VWS V14.01,2013-02-15 22:49:00,
2013-02-15 14:54:00,48.4,23.3,30.34,West,269,0.0,0.0,37,0.00,,BKN200,0.00,VWS V14.01,2013-02-15 22:54:00,
2013-02-15 14:59:00,48.0,23.0,30.34,West,273,2.7,6.3,37,0.00,,BKN200,0.00,VWS V14.01,2013-02-15 22:59:00,
2013-02-15 15:04:00,48.0,23.0,30.34,SW,229,0.0,2.2,37,0.00,,BKN200,0.00,VWS V14.01,2013-02-15 23:04:00,
2013-02-15 15:09:00,47.8,22.9,30.31,SW,229,0.0,2.2,37,0.00,,BKN200,0.00,VWS V14.01,2013-02-15 23:09:00,
2013-02-15 15:14:00,47.8,22.9,30.31,WSW,257,5.8,5.8,37,0.00,,BKN200,0.00,VWS V14.01,2013-02-15 23:14:00,
2013-02-15 15:19:00,47.8,22.9,30.31,WSW,243,3.6,5.8,37,0.00,,BKN200,0.00,VWS V14.01,2013-02-15 23:19:00,
2013-02-15 15:24:00,47.7,22.7,30.34,WSW,238,0.0,2.2,37,0.00,,BKN200,0.00,VWS V14.01,2013-02-15 23:24:00,
2013-02-15 15:29:00,47.5,22.5,30.34,WSW,244,2.2,2.2,37,0.00,,BKN200,0.00,VWS V14.01,2013-02-15 23:29:00,
2013-02-15 15:34:00,47.3,22.4,30.34,SW,218,3.1,3.1,37,0.00,,BKN200,0.00,VWS V14.01,2013-02-15 23:34:00,
2013-02-15 15:39:00,47.3,22.4,30.31,SW,231,4.0,4.0,37,0.00,,BKN200,0.00,VWS V14.01,2013-02-15 23:39:00,
2013-02-15 15:44:00,47.3,22.4,30.31,SW,219,0.0,2.2,37,0.00,,BKN200,0.00,VWS V14.01,2013-02-15 23:44:00,
2013-02-15 15:49:00,47.1,22.2,30.31,SW,219,0.0,0.0,37,0.00,,BKN200,0.00,VWS V14.01,2013-02-15 23:49:00,
2013-02-15 15:54:00,46.8,21.9,30.31,SW,219,2.7,2.7,37,0.00,,BKN200,0.00,VWS V14.01,2013-02-15 23:54:00,
2013-02-15 15:59:00,46.6,21.7,30.31,SW,219,2.7,3.1,37,0.00,,BKN200,0.00,VWS V14.01,2013-02-15 23:59:00,
2013-02-15 16:04:00,46.6,22.4,30.31,SW,230,3.1,4.0,38,0.00,,SCT200,0.00,VWS V14.01,2013-02-16 00:04:00,
2013-02-15 16:09:00,46.6,22.4,30.31,SW,229,2.7,2.7,38,0.00,,SCT200,0.00,VWS V14.01,2013-02-16 00:09:00,
2013-02-15 16:14:00,46.6,22.4,30.31,SW,235,2.7,2.7,38,0.00,,SCT200,0.00,VWS V14.01,2013-02-16 00:14:00,
2013-02-15 16:19:00,46.6,22.4,30.31,SW,232,2.7,3.6,38,0.00,,SCT200,0.00,VWS V14.01,2013-02-16 00:19:00,
2013-02-15 16:24:00,46.4,22.2,30.31,SW,232,2.7,2.7,38,0.00,,SCT200,0.00,VWS V14.01,2013-02-16 00:24:00,
2013-02-15 16:29:00,46.2,22.0,30.31,SW,232,0.0,0.0,38,0.00,,SCT200,0.00,VWS V14.01,2013-02-16 00:29:00,
2013-02-15 16:34:00,45.9,21.7,30.31,SW,232,0.0,0.0,38,0.00,,SCT200,0.00,VWS V14.01,2013-02-16 00:34:00,
2013-02-15 16:39:00,45.3,21.2,30.31,SW,232,0.0,0.0,38,0.00,,SCT200,0.00,VWS V14.01,2013-02-16 00:39:00,
2013-02-15 16:44:00,45.3,21.2,30.31,SW,232,0.0,0.0,38,0.00,,SCT200,0.00,VWS V14.01,2013-02-16 00:44:00,
2013-02-15 16:49:00,45.1,21.1,30.31,SW,232,0.0,0.0,38,0.00,,SCT200,0.00,VWS V14.01,2013-02-16 00:49:00,
2013-02-15 16:54:00,44.6,20.6,30.28,SW,232,0.0,0.0,38,0.00,,SCT200,0.00,VWS V14.01,2013-02-16 00:54:00,
2013-02-15 16:59:00,44.2,20.9,30.28,SW,232,0.0,0.0,39,0.00,,SCT200,0.00,VWS V14.01,2013-02-16 00:59:00,
2013-02-15 17:04:00,43.5,20.2,30.28,SW,232,0.0,0.0,39,0.00,,FEW200,0.00,VWS V14.01,2013-02-16 01:04:00,
2013-02-15 17:09:00,42.6,20.0,30.28,SW,232,0.0,0.0,40,0.00,,FEW200,0.00,VWS V14.01,2013-02-16 01:09:00,
2013-02-15 17:14:00,42.1,19.5,30.28,SW,232,0.0,0.0,40,0.00,,FEW200,0.00,VWS V14.01,2013-02-16 01:14:00,
2013-02-15 17:19:00,41.2,18.7,30.28,SW,232,0.0,0.0,40,0.00,,FEW200,0.00,VWS V14.01,2013-02-16 01:19:00,
2013-02-15 17:24:00,40.5,18.6,30.28,SW,232,0.0,0.0,41,0.00,,FEW200,0.00,VWS V14.01,2013-02-16 01:24:00,
2013-02-15 17:29:00,39.4,17.7,30.28,SW,232,0.0,0.0,41,0.00,,FEW200,0.00,VWS V14.01,2013-02-16 01:29:00,
2013-02-15 17:34:00,38.5,16.8,30.28,SW,232,0.0,0.0,41,0.00,,FEW200,0.00,VWS V14.01,2013-02-16 01:34:00,
2013-02-15 17:39:00,37.8,16.8,30.28,SW,232,0.0,0.0,42,0.00,,FEW200,0.00,VWS V14.01,2013-02-16 01:39:00,
2013-02-15 17:44:00,37.6,17.7,30.28,SW,232,0.0,0.0,44,0.00,,FEW200,0.00,VWS V14.01,2013-02-16 01:44:00,
2013-02-15 17:49:00,38.5,20.0,30.28,SW,215,2.2,2.2,47,0.00,,FEW200,0.00,VWS V14.01,2013-02-16 01:49:00,
2013-02-15 17:54:00,39.4,20.8,30.28,SW,214,0.0,0.0,47,0.00,,FEW200,0.00,VWS V14.01,2013-02-16 01:54:00,
2013-02-15 17:59:00,39.4,20.3,30.28,SW,214,0.0,0.0,46,0.00,,FEW200,0.00,VWS V14.01,2013-02-16 01:59:00,
2013-02-15 18:04:00,38.5,19.0,30.28,SW,214,0.0,0.0,45,0.00,,FEW040,0.00,VWS V14.01,2013-02-16 02:04:00,
2013-02-15 18:09:00,37.4,18.0,30.28,SW,214,0.0,0.0,45,0.00,,FEW040,0.00,VWS V14.01,2013-02-16 02:09:00,
2013-02-15 18:14:00,36.7,18.4,30.28,SSW,213,0.0,0.0,47,0.00,,FEW040,0.00,VWS V14.01,2013-02-16 02:14:00,
2013-02-15 18:19:00,36.7,19.3,30.28,SSW,213,0.0,0.0,49,0.00,,FEW040,0.00,VWS V14.01,2013-02-16 02:19:00,
2013-02-15 18:24:00,36.0,18.2,30.28,SSW,213,0.0,0.0,48,0.00,,FEW040,0.00,VWS V14.01,2013-02-16 02:24:00,
2013-02-15 18:29:00,35.2,17.5,30.28,SSW,213,0.0,0.0,48,0.00,,FEW040,0.00,VWS V14.01,2013-02-16 02:29:00,
2013-02-15 18:34:00,34.7,18.0,30.28,SW,214,0.0,0.0,50,0.00,,FEW040,0.00,VWS V14.01,2013-02-16 02:34:00,
2013-02-15 18:39:00,34.7,18.4,30.28,SSW,213,0.0,0.0,51,0.00,,FEW040,0.00,VWS V14.01,2013-02-16 02:39:00,
2013-02-15 18:44:00,34.7,19.3,30.28,SSW,213,0.0,0.0,53,0.00,,FEW040,0.00,VWS V14.01,2013-02-16 02:44:00,
2013-02-15 18:49:00,34.7,19.8,30.28,SSW,213,0.0,0.0,54,0.00,,FEW040,0.00,VWS V14.01,2013-02-16 02:49:00,
2013-02-15 18:54:00,34.5,19.6,30.28,SSW,213,0.0,0.0,54,0.00,,FEW040,0.00,VWS V14.01,2013-02-16 02:54:00,
2013-02-15 18:59:00,34.2,18.8,30.28,SW,214,0.0,0.0,53,0.00,,CLR,0.00,VWS V14.01,2013-02-16 02:59:00,
2013-02-15 19:04:00,33.6,18.8,30.28,SSW,213,0.0,0.0,54,0.00,,CLR,0.00,VWS V14.01,2013-02-16 03:04:00,
2013-02-15 19:09:00,33.3,18.0,30.25,SSW,213,0.0,0.0,53,0.00,,CLR,0.00,VWS V14.01,2013-02-16 03:09:00,
2013-02-15 19:14:00,32.7,17.9,30.25,SSW,213,0.0,0.0,54,0.00,,CLR,0.00,VWS V14.01,2013-02-16 03:14:00,
2013-02-15 19:19:00,32.2,17.4,30.25,SSW,213,0.0,0.0,54,0.00,,CLR,0.00,VWS V14.01,2013-02-16 03:19:00,
2013-02-15 19:24:00,32.2,17.8,30.25,SSW,213,0.0,0.0,55,0.00,,CLR,0.00,VWS V14.01,2013-02-16 03:24:00,
2013-02-15 19:29:00,31.6,17.3,30.25,SSW,213,0.0,0.0,55,0.00,,CLR,0.00,VWS V14.01,2013-02-16 03:29:00,
2013-02-15 19:34:00,31.3,17.0,30.25,SSW,213,0.0,0.0,55,0.00,,CLR,0.00,VWS V14.01,2013-02-16 03:34:00,
2013-02-15 19:39:00,30.9,16.7,30.25,SSW,213,0.0,0.0,55,0.00,,CLR,0.00,VWS V14.01,2013-02-16 03:39:00,
2013-02-15 19:44:00,30.6,16.3,30.25,SW,214,0.0,0.0,55,0.00,,CLR,0.00,VWS V14.01,2013-02-16 03:44:00,
2013-02-15 19:49:00,30.2,16.4,30.25,SSW,213,0.0,0.0,56,0.00,,CLR,0.00,VWS V14.01,2013-02-16 03:49:00,
2013-02-15 19:54:00,30.0,16.2,30.25,SSW,213,0.0,0.0,56,0.00,,CLR,0.00,VWS V14.01,2013-02-16 03:54:00,
2013-02-15 19:59:00,30.0,17.0,30.25,SSW,213,0.0,0.0,58,0.00,,CLR,0.00,VWS V14.01,2013-02-16 03:59:00,
2013-02-15 20:04:00,30.2,18.0,30.25,SSW,213,0.0,0.0,60,0.00,,CLR,0.00,VWS V14.01,2013-02-16 04:04:00,
2013-02-15 20:09:00,30.9,19.5,30.25,SSW,213,0.0,0.0,62,0.00,,CLR,0.00,VWS V14.01,2013-02-16 04:09:00,
2013-02-15 20:14:00,31.3,20.5,30.25,SSW,213,0.0,0.0,64,0.00,,CLR,0.00,VWS V14.01,2013-02-16 04:14:00,
2013-02-15 20:19:00,32.0,22.3,30.25,SSW,213,0.0,0.0,67,0.00,,CLR,0.00,VWS V14.01,2013-02-16 04:19:00,
2013-02-15 20:24:00,32.2,22.5,30.25,SSW,213,0.0,0.0,67,0.00,,CLR,0.00,VWS V14.01,2013-02-16 04:24:00,
2013-02-15 20:29:00,32.0,21.9,30.25,SSW,213,0.0,0.0,66,0.00,,CLR,0.00,VWS V14.01,2013-02-16 04:29:00,
2013-02-15 20:34:00,32.0,21.9,30.25,SSW,213,0.0,0.0,66,0.00,,CLR,0.00,VWS V14.01,2013-02-16 04:34:00,
2013-02-15 20:39:00,31.5,21.1,30.25,SSW,213,0.0,0.0,65,0.00,,CLR,0.00,VWS V14.01,2013-02-16 04:39:00,
2013-02-15 20:44:00,31.1,20.4,30.25,SSW,213,0.0,0.0,64,0.00,,CLR,0.00,VWS V14.01,2013-02-16 04:44:00,
2013-02-15 20:49:00,30.7,20.4,30.25,SSW,213,0.0,0.0,65,0.00,,CLR,0.00,VWS V14.01,2013-02-16 04:49:00,
2013-02-15 20:54:00,31.5,22.5,30.22,SSW,213,0.0,0.0,69,0.00,,CLR,0.00,VWS V14.01,2013-02-16 04:54:00,
2013-02-15 20:59:00,32.2,23.9,30.22,SSW,210,0.0,0.0,71,0.00,,CLR,0.00,VWS V14.01,2013-02-16 04:59:00,
2013-02-15 21:00:00,32.4,24.0,30.22,South,186,3.1,3.6,71,0.00,,CLR,0.00,VWS V14.01,2013-02-16 05:00:00,
2013-02-15 21:05:00,32.7,24.4,30.22,SSE,167,3.6,3.6,71,0.00,,CLR,0.00,VWS V14.01,2013-02-16 05:05:00,
2013-02-15 21:10:00,32.7,24.0,30.22,SSW,199,2.7,2.7,70,0.00,,CLR,0.00,VWS V14.01,2013-02-16 05:10:00,
2013-02-15 21:15:00,32.7,23.7,30.22,SSE,154,3.1,3.1,69,0.00,,CLR,0.00,VWS V14.01,2013-02-16 05:15:00,
2013-02-15 21:20:00,32.7,23.3,30.22,South,170,3.1,3.1,68,0.00,,CLR,0.00,VWS V14.01,2013-02-16 05:20:00,
2013-02-15 21:23:00,32.7,23.3,30.22,SSE,164,0.0,3.1,68,0.00,,CLR,0.00,VWS V14.01,2013-02-16 05:23:00,
2013-02-15 21:28:00,33.1,24.0,30.22,SSE,155,0.0,3.1,69,0.00,,CLR,0.00,VWS V14.01,2013-02-16 05:28:00,
2013-02-15 21:33:00,33.4,24.0,30.22,SSE,159,0.0,0.0,68,0.00,,CLR,0.00,VWS V14.01,2013-02-16 05:33:00,
2013-02-15 21:38:00,33.3,23.5,30.22,ESE,121,3.1,3.1,67,0.00,,CLR,0.00,VWS V14.01,2013-02-16 05:38:00,
2013-02-15 21:43:00,33.3,23.1,30.22,SSE,157,2.7,2.7,66,0.00,,CLR,0.00,VWS V14.01,2013-02-16 05:43:00,
2013-02-15 21:48:00,33.3,22.8,30.22,SE,146,0.0,0.0,65,0.00,,CLR,0.00,VWS V14.01,2013-02-16 05:48:00,
2013-02-15 21:53:00,32.9,22.1,30.22,SSE,151,0.0,2.7,64,0.00,,CLR,0.00,VWS V14.01,2013-02-16 05:53:00,
2013-02-15 21:58:00,32.7,21.9,30.22,SE,127,0.0,4.9,64,0.00,,FEW040,0.00,VWS V14.01,2013-02-16 05:58:00,
2013-02-15 22:03:00,32.5,22.1,30.22,SE,133,0.0,2.7,65,0.00,,FEW040,0.00,VWS V14.01,2013-02-16 06:03:00,
2013-02-15 22:08:00,32.4,21.9,30.22,SE,136,0.0,4.0,65,0.00,,FEW040,0.00,VWS V14.01,2013-02-16 06:08:00,
2013-02-15 22:13:00,32.2,21.8,30.22,SE,137,3.6,3.6,65,0.00,,FEW040,0.00,VWS V14.01,2013-02-16 06:13:00,
2013-02-15 22:18:00,32.0,21.6,30.22,SE,144,2.2,3.1,65,0.00,,FEW040,0.00,VWS V14.01,2013-02-16 06:18:00,
2013-02-15 22:23:00,31.8,21.8,30.22,South,189,2.7,2.7,66,0.00,,FEW040,0.00,VWS V14.01,2013-02-16 06:23:00,
2013-02-15 22:28:00,31.6,21.6,30.22,South,181,0.0,2.7,66,0.00,,FEW040,0.00,VWS V14.01,2013-02-16 06:28:00,
2013-02-15 22:33:00,31.6,22.0,30.22,SSE,165,0.0,2.2,67,0.00,,FEW040,0.00,VWS V14.01,2013-02-16 06:33:00,
2013-02-15 22:38:00,31.5,21.8,30.22,South,170,2.2,2.7,67,0.00,,FEW040,0.00,VWS V14.01,2013-02-16 06:38:00,
2013-02-15 22:43:00,31.3,22.3,30.22,SSW,213,3.1,3.1,69,0.00,,FEW040,0.00,VWS V14.01,2013-02-16 06:43:00,
2013-02-15 22:48:00,31.3,22.6,30.22,SSE,168,0.0,3.6,70,0.00,,FEW040,0.00,VWS V14.01,2013-02-16 06:48:00,
2013-02-15 22:53:00,31.5,22.8,30.22,East,95,0.0,2.2,70,0.00,,FEW040,0.00,VWS V14.01,2013-02-16 06:53:00,
2013-02-15 22:58:00,31.5,22.8,30.22,East,95,0.0,0.0,70,0.00,,CLR,0.00,VWS V14.01,2013-02-16 06:58:00,
2013-02-15 23:03:00,31.5,22.8,30.22,East,95,0.0,0.0,70,0.00,,CLR,0.00,VWS V14.01,2013-02-16 07:03:00,
2013-02-15 23:08:00,31.3,22.3,30.22,East,95,0.0,0.0,69,0.00,,CLR,0.00,VWS V14.01,2013-02-16 07:08:00,
2013-02-15 23:13:00,31.3,22.3,30.22,East,83,2.7,2.7,69,0.00,,CLR,0.00,VWS V14.01,2013-02-16 07:13:00,
2013-02-15 23:18:00,31.3,22.3,30.22,East,79,0.0,0.0,69,0.00,,CLR,0.00,VWS V14.01,2013-02-16 07:18:00,
2013-02-15 23:23:00,30.7,21.4,30.22,East,79,0.0,0.0,68,0.00,,CLR,0.00,VWS V14.01,2013-02-16 07:23:00,
2013-02-15 23:28:00,30.9,22.0,30.22,ENE,70,2.7,3.1,69,0.00,,CLR,0.00,VWS V14.01,2013-02-16 07:28:00,
2013-02-15 23:33:00,30.9,22.0,30.22,ENE,70,0.0,0.0,69,0.00,,CLR,0.00,VWS V14.01,2013-02-16 07:33:00,
2013-02-15 23:38:00,31.3,22.6,30.22,ENE,72,4.0,4.0,70,0.00,,CLR,0.00,VWS V14.01,2013-02-16 07:38:00,
2013-02-15 23:43:00,31.1,22.1,30.22,ENE,77,0.0,0.0,69,0.00,,CLR,0.00,VWS V14.01,2013-02-16 07:43:00,
2013-02-15 23:48:00,30.6,21.3,30.22,ENE,77,0.0,0.0,68,0.00,,CLR,0.00,VWS V14.01,2013-02-16 07:48:00,
2013-02-15 23:53:00,30.0,20.4,30.22,ENE,77,0.0,0.0,67,0.00,,CLR,0.00,VWS V14.01,2013-02-16 07:53:00,
2013-02-15 23:58:00,29.8,20.6,30.22,ENE,77,0.0,0.0,68,0.00,,FEW035,0.00,VWS V14.01,2013-02-16 07:58:00,